Time;durP1;ratioP1;P1;durP2;ratioP2;P2;SDS_P1;SDS_P2;PMS_P1;PMS_P2;Temp;Humidity;BMP_temperature;BMP_pressure;BME280_temperature;BME280_humidity;BME280_pressure;Samples;Min_cycle;Max_cycle;Signal;HPM_P1;HPM_P2
2023/08/17 00:01:50;;;;;;;8.00;7.20;;;;;;;;;;5042226;28;20136;-82
2023/08/17 00:04:17;;;;;;;8.90;7.40;;;;;;;;;;5038996;28;20045;-82
2023/08/17 00:06:44;;;;;;;8.48;7.15;;;;;;;;;;5039486;28;20056;-82
2023/08/17 00:09:12;;;;;;;10.30;7.22;;;;;;;;;;5048465;28;20417;-82
2023/08/17 00:11:39;;;;;;;8.55;7.38;;;;;;;;;;5047733;28;20567;-82
2023/08/17 00:14:07;;;;;;;9.02;7.43;;;;;;;;;;5048476;28;20059;-80
2023/08/17 00:16:33;;;;;;;9.30;7.53;;;;;;;;;;5042064;28;20045;-82
2023/08/17 00:19:00;;;;;;;9.52;7.88;;;;;;;;;;5046726;28;20052;-82
2023/08/17 00:21:26;;;;;;;9.63;8.00;;;;;;;;;;5050371;28;20045;-82
2023/08/17 00:23:53;;;;;;;9.68;8.40;;;;;;;;;;5054906;28;20046;-81
2023/08/17 00:26:20;;;;;;;9.07;7.28;;;;;;;;;;5040361;28;20144;-81
2023/08/17 00:28:46;;;;;;;9.75;8.75;;;;;;;;;;5049361;28;20053;-82
2023/08/17 00:31:14;;;;;;;10.48;8.25;;;;;;;;;;5058870;28;20131;-82
2023/08/17 00:33:41;;;;;;;8.70;7.13;;;;;;;;;;5040013;28;20135;-81
2023/08/17 00:36:07;;;;;;;9.73;7.60;;;;;;;;;;5036573;28;20137;-81
2023/08/17 00:38:34;;;;;;;8.70;7.70;;;;;;;;;;5038509;28;20528;-82
2023/08/17 00:41:00;;;;;;;9.32;7.63;;;;;;;;;;5045266;28;20444;-82
2023/08/17 00:43:28;;;;;;;9.45;7.93;;;;;;;;;;5038970;28;20148;-82
2023/08/17 00:45:55;;;;;;;10.30;8.25;;;;;;;;;;5038623;28;20059;-81
2023/08/17 00:48:23;;;;;;;8.80;7.65;;;;;;;;;;5040500;28;20511;-81
2023/08/17 00:50:52;;;;;;;8.82;7.93;;;;;;;;;;5039499;28;20428;-82
2023/08/17 00:53:21;;;;;;;8.57;7.68;;;;;;;;;;5039875;28;20534;-82
2023/08/17 00:55:47;;;;;;;8.40;7.60;;;;;;;;;;5050311;28;20075;-82
2023/08/17 00:58:15;;;;;;;10.90;8.35;;;;;;;;;;5047319;28;20110;-82
2023/08/17 01:00:41;;;;;;;18.27;14.27;;;;;;;;;;5053366;28;20051;-82
2023/08/17 01:03:08;;;;;;;8.70;7.80;;;;;;;;;;5040640;28;20045;-82
2023/08/17 01:05:37;;;;;;;9.27;7.60;;;;;;;;;;5044915;28;20045;-82
2023/08/17 01:08:04;;;;;;;8.15;7.30;;;;;;;;;;5037128;28;20107;-82
2023/08/17 01:10:40;;;;;;;8.52;7.63;;;;;;;;;;5037468;28;20046;-82
2023/08/17 01:13:13;;;;;;;10.10;7.45;;;;;;;;;;5036953;28;20042;-82
2023/08/17 01:15:45;;;;;;;8.88;7.60;;;;;;;;;;5037686;28;20062;-81
2023/08/17 01:18:18;;;;;;;9.23;7.32;;;;;;;;;;5037505;28;20045;-84
2023/08/17 01:20:47;;;;;;;8.57;7.50;;;;;;;;;;5034984;28;20077;-83
2023/08/17 01:23:15;;;;;;;8.50;7.37;;;;;;;;;;5045789;28;20041;-83
2023/08/17 01:25:42;;;;;;;8.85;7.70;;;;;;;;;;5045294;28;20404;-83
2023/08/17 01:28:08;;;;;;;8.95;7.55;;;;;;;;;;5053225;28;20045;-83
2023/08/17 01:30:40;;;;;;;8.40;7.18;;;;;;;;;;5048493;28;20037;-82
2023/08/17 01:33:09;;;;;;;8.05;7.03;;;;;;;;;;5044090;28;20037;-82
2023/08/17 01:35:40;;;;;;;9.05;7.15;;;;;;;;;;5036334;28;20069;-82
2023/08/17 01:38:13;;;;;;;8.50;7.32;;;;;;;;;;5036808;28;20046;-82
2023/08/17 01:40:43;;;;;;;9.85;7.25;;;;;;;;;;5031821;28;20042;-82
2023/08/17 01:43:11;;;;;;;9.52;8.07;;;;;;;;;;5040950;28;20045;-82
2023/08/17 01:45:38;;;;;;;8.43;7.57;;;;;;;;;;5037395;28;20064;-83
2023/08/17 01:48:05;;;;;;;8.05;7.25;;;;;;;;;;5036254;28;20045;-82
2023/08/17 01:50:31;;;;;;;8.85;7.60;;;;;;;;;;5035969;28;20043;-81
2023/08/17 01:52:58;;;;;;;9.90;7.45;;;;;;;;;;5036158;28;20053;-80
2023/08/17 01:55:24;;;;;;;10.20;8.00;;;;;;;;;;5036324;28;20136;-81
2023/08/17 01:57:52;;;;;;;9.38;8.32;;;;;;;;;;5039564;28;20053;-81
2023/08/17 02:00:19;;;;;;;12.07;8.00;;;;;;;;;;5040513;28;20064;-82
2023/08/17 02:02:46;;;;;;;8.98;7.10;;;;;;;;;;5041926;28;20052;-81
2023/08/17 02:05:12;;;;;;;8.65;7.63;;;;;;;;;;5044238;28;20046;-82
2023/08/17 02:07:39;;;;;;;9.60;7.57;;;;;;;;;;5040805;28;20056;-82
2023/08/17 02:10:07;;;;;;;8.52;7.35;;;;;;;;;;5041253;28;20053;-82
2023/08/17 02:12:33;;;;;;;9.35;7.40;;;;;;;;;;5042824;28;20129;-82
2023/08/17 02:15:01;;;;;;;7.68;6.88;;;;;;;;;;5041040;28;20053;-82
2023/08/17 02:17:28;;;;;;;9.65;7.30;;;;;;;;;;5040172;28;20068;-82
2023/08/17 02:19:54;;;;;;;8.35;7.10;;;;;;;;;;5039806;28;20056;-82
2023/08/17 02:22:21;;;;;;;8.10;7.10;;;;;;;;;;5039580;28;20057;-82
2023/08/17 02:24:47;;;;;;;9.35;7.28;;;;;;;;;;5038862;28;20046;-82
2023/08/17 02:27:14;;;;;;;9.75;7.15;;;;;;;;;;5038761;28;20051;-82
2023/08/17 02:29:40;;;;;;;8.13;7.32;;;;;;;;;;5039087;28;20062;-82
2023/08/17 02:32:08;;;;;;;8.57;7.65;;;;;;;;;;5039090;28;20489;-82
2023/08/17 02:34:35;;;;;;;8.48;7.10;;;;;;;;;;5038987;28;20056;-82
2023/08/17 02:37:01;;;;;;;8.52;7.15;;;;;;;;;;5038737;28;20053;-81
2023/08/17 02:39:28;;;;;;;8.15;6.90;;;;;;;;;;5040019;28;20247;-82
2023/08/17 02:41:54;;;;;;;7.95;6.80;;;;;;;;;;5039466;28;20049;-82
2023/08/17 02:44:21;;;;;;;9.35;7.13;;;;;;;;;;5039451;28;20443;-83
2023/08/17 02:46:48;;;;;;;8.27;7.00;;;;;;;;;;5038449;28;20048;-82
2023/08/17 02:49:16;;;;;;;8.35;7.28;;;;;;;;;;5039628;28;20223;-82
2023/08/17 02:51:42;;;;;;;8.75;7.40;;;;;;;;;;5051009;28;20427;-82
2023/08/17 02:54:09;;;;;;;7.40;6.63;;;;;;;;;;5047082;28;20053;-82
2023/08/17 02:56:35;;;;;;;9.70;7.13;;;;;;;;;;5038106;28;20049;-82
2023/08/17 02:59:02;;;;;;;8.35;7.45;;;;;;;;;;5040691;28;20128;-82
2023/08/17 03:01:29;;;;;;;7.97;6.97;;;;;;;;;;5039598;28;20503;-82
2023/08/17 03:03:56;;;;;;;9.10;7.60;;;;;;;;;;5039797;28;20104;-82
2023/08/17 03:06:24;;;;;;;7.60;6.75;;;;;;;;;;5040233;28;20048;-82
2023/08/17 03:08:52;;;;;;;8.43;7.25;;;;;;;;;;5040070;28;20048;-82
2023/08/17 03:11:20;;;;;;;9.20;7.65;;;;;;;;;;5040880;28;20049;-82
2023/08/17 03:13:48;;;;;;;8.15;7.35;;;;;;;;;;5040000;28;20053;-83
2023/08/17 03:16:14;;;;;;;8.98;7.53;;;;;;;;;;5038819;28;20100;-82
2023/08/17 03:18:41;;;;;;;8.20;7.40;;;;;;;;;;5038987;28;20045;-81
2023/08/17 03:21:07;;;;;;;8.95;7.55;;;;;;;;;;5039424;28;20128;-82
2023/08/17 03:23:35;;;;;;;9.05;7.80;;;;;;;;;;5039427;28;20052;-82
2023/08/17 03:26:02;;;;;;;10.38;8.07;;;;;;;;;;5039132;28;20092;-82
2023/08/17 03:28:28;;;;;;;10.02;8.48;;;;;;;;;;5038455;28;20037;-82
2023/08/17 03:30:56;;;;;;;9.38;7.80;;;;;;;;;;5039457;28;20065;-82
2023/08/17 03:33:22;;;;;;;9.85;8.20;;;;;;;;;;5048428;28;20522;-81
2023/08/17 03:35:49;;;;;;;9.57;8.30;;;;;;;;;;5049392;28;20069;-82
2023/08/17 03:38:15;;;;;;;9.05;8.15;;;;;;;;;;5037059;28;20041;-82
2023/08/17 03:40:43;;;;;;;9.75;8.75;;;;;;;;;;5037191;28;20049;-81
2023/08/17 03:43:10;;;;;;;9.43;8.18;;;;;;;;;;5037571;28;20042;-82
2023/08/17 03:45:37;;;;;;;9.60;8.65;;;;;;;;;;5036914;28;20058;-82
2023/08/17 03:48:04;;;;;;;10.02;8.40;;;;;;;;;;5035950;28;20053;-82
2023/08/17 03:50:30;;;;;;;9.85;8.60;;;;;;;;;;5036112;28;20071;-81
2023/08/17 03:52:57;;;;;;;9.43;7.72;;;;;;;;;;5036592;28;20049;-82
2023/08/17 03:55:23;;;;;;;9.73;8.45;;;;;;;;;;5037002;28;20060;-81
2023/08/17 03:57:51;;;;;;;9.65;8.38;;;;;;;;;;5038137;28;20052;-81
2023/08/17 04:00:18;;;;;;;8.57;7.68;;;;;;;;;;5037974;28;20051;-80
2023/08/17 04:02:45;;;;;;;9.68;8.30;;;;;;;;;;5037829;28;20083;-82
2023/08/17 04:05:11;;;;;;;9.63;8.63;;;;;;;;;;5037550;28;20137;-82
2023/08/17 04:07:38;;;;;;;9.27;8.05;;;;;;;;;;5037453;28;20057;-82
2023/08/17 04:10:07;;;;;;;9.15;8.25;;;;;;;;;;5038279;28;20542;-82
2023/08/17 04:12:33;;;;;;;8.95;8.05;;;;;;;;;;5046855;28;20140;-82
2023/08/17 04:15:01;;;;;;;10.57;9.38;;;;;;;;;;5050205;28;20109;-82
2023/08/17 04:17:28;;;;;;;10.05;8.75;;;;;;;;;;5046277;28;20051;-82
2023/08/17 04:19:54;;;;;;;9.55;8.55;;;;;;;;;;5034514;28;20045;-81
2023/08/17 04:22:21;;;;;;;9.88;8.85;;;;;;;;;;5036523;28;20053;-82
2023/08/17 04:24:48;;;;;;;9.18;7.82;;;;;;;;;;5036309;28;20052;-82
2023/08/17 04:27:14;;;;;;;10.50;8.75;;;;;;;;;;5036260;28;20131;-82
2023/08/17 04:29:41;;;;;;;10.77;9.10;;;;;;;;;;5036289;28;20053;-82
2023/08/17 04:32:15;;;;;;;12.15;8.57;;;;;;;;;;5036388;28;20045;-82
2023/08/17 04:34:42;;;;;;;9.27;8.02;;;;;;;;;;5037955;28;20084;-82
2023/08/17 04:37:09;;;;;;;10.63;8.32;;;;;;;;;;5037791;28;20045;-82
2023/08/17 04:39:35;;;;;;;11.35;9.10;;;;;;;;;;5037722;28;20423;-81
2023/08/17 04:42:03;;;;;;;12.52;9.00;;;;;;;;;;5037556;28;20043;-81
2023/08/17 04:44:30;;;;;;;10.90;9.20;;;;;;;;;;5037297;28;20059;-82
2023/08/17 04:46:56;;;;;;;10.02;8.52;;;;;;;;;;5038061;28;20060;-82
2023/08/17 04:49:25;;;;;;;13.18;9.13;;;;;;;;;;5038311;28;20041;-82
2023/08/17 04:51:51;;;;;;;9.52;8.52;;;;;;;;;;5038313;28;20103;-82
2023/08/17 04:54:18;;;;;;;11.23;8.73;;;;;;;;;;5038164;28;20052;-82
2023/08/17 04:56:44;;;;;;;10.50;9.40;;;;;;;;;;5034798;28;20049;-82
2023/08/17 04:59:11;;;;;;;10.98;9.00;;;;;;;;;;5034299;28;20038;-81
2023/08/17 05:01:38;;;;;;;10.23;8.60;;;;;;;;;;5054777;22;20056;-82
2023/08/17 05:04:05;;;;;;;10.98;9.23;;;;;;;;;;5044857;28;20104;-86
2023/08/17 05:06:33;;;;;;;11.23;8.65;;;;;;;;;;5042751;28;20041;-84
2023/08/17 05:09:00;;;;;;;11.05;8.80;;;;;;;;;;5042660;28;20037;-86
2023/08/17 05:11:26;;;;;;;10.32;8.85;;;;;;;;;;5039875;28;20148;-86
2023/08/17 05:13:53;;;;;;;10.43;8.73;;;;;;;;;;5036776;28;20415;-87
2023/08/17 05:16:19;;;;;;;11.15;9.85;;;;;;;;;;5040637;28;20050;-85
2023/08/17 05:18:46;;;;;;;11.50;9.20;;;;;;;;;;5039373;28;20041;-87
2023/08/17 05:21:12;;;;;;;10.77;8.63;;;;;;;;;;5039822;28;20055;-85
2023/08/17 05:23:40;;;;;;;11.88;9.35;;;;;;;;;;5040096;28;20068;-86
2023/08/17 05:26:07;;;;;;;11.35;9.05;;;;;;;;;;5040752;28;20045;-84
2023/08/17 05:28:34;;;;;;;12.77;9.98;;;;;;;;;;5039903;28;20109;-85
2023/08/17 05:31:04;;;;;;;11.55;10.35;;;;;;;;;;5031041;28;20052;-84
2023/08/17 05:33:30;;;;;;;;;;;;;;;;;;5041273;28;20098;-85
2023/08/17 05:35:57;;;;;;;11.07;9.68;;;;;;;;;;5042399;28;20342;-85
2023/08/17 05:38:24;;;;;;;11.45;9.07;;;;;;;;;;5041911;28;20045;-86
2023/08/17 05:40:57;;;;;;;10.98;9.45;;;;;;;;;;5041548;28;20049;-87
2023/08/17 05:43:24;;;;;;;11.93;9.82;;;;;;;;;;5044769;28;20474;-85
2023/08/17 05:45:51;;;;;;;13.02;10.57;;;;;;;;;;5044145;28;20132;-85
2023/08/17 05:48:20;;;;;;;12.18;10.88;;;;;;;;;;5041401;28;20046;-85
2023/08/17 05:50:46;;;;;;;13.13;10.57;;;;;;;;;;5039913;28;20416;-85
2023/08/17 05:53:13;;;;;;;11.98;10.27;;;;;;;;;;5039649;28;20469;-86
2023/08/17 05:55:39;;;;;;;13.18;11.13;;;;;;;;;;5039137;28;20476;-86
2023/08/17 05:58:07;;;;;;;12.27;10.70;;;;;;;;;;5039233;28;20053;-85
2023/08/17 06:00:35;;;;;;;11.77;9.40;;;;;;;;;;5040143;28;20049;-86
2023/08/17 06:03:01;;;;;;;11.05;9.40;;;;;;;;;;5039743;28;20045;-86
2023/08/17 06:05:30;;;;;;;10.85;9.63;;;;;;;;;;5039702;28;20109;-86
2023/08/17 06:07:56;;;;;;;11.13;8.70;;;;;;;;;;5041907;28;20105;-85
2023/08/17 06:10:24;;;;;;;13.35;10.43;;;;;;;;;;5040042;28;20049;-86
2023/08/17 06:12:52;;;;;;;10.98;9.32;;;;;;;;;;5040519;28;20049;-85
2023/08/17 06:15:20;;;;;;;10.35;8.65;;;;;;;;;;5040996;28;20052;-85
2023/08/17 06:17:46;;;;;;;9.52;8.15;;;;;;;;;;5039843;28;20049;-87
2023/08/17 06:20:14;;;;;;;9.15;8.15;;;;;;;;;;5041015;28;20046;-86
2023/08/17 06:22:40;;;;;;;9.80;8.82;;;;;;;;;;5041662;28;20132;-84
2023/08/17 06:25:08;;;;;;;9.65;8.60;;;;;;;;;;5046082;28;20030;-85
2023/08/17 06:27:35;;;;;;;9.85;8.85;;;;;;;;;;5042385;28;20478;-85
2023/08/17 06:30:02;;;;;;;10.00;8.82;;;;;;;;;;5035572;28;20399;-85
2023/08/17 06:32:30;;;;;;;10.23;9.13;;;;;;;;;;5034699;28;20169;-85
2023/08/17 06:34:57;;;;;;;10.27;8.50;;;;;;;;;;5039058;28;20045;-85
2023/08/17 06:37:24;;;;;;;8.60;7.70;;;;;;;;;;5039643;28;20048;-86
2023/08/17 06:39:50;;;;;;;10.57;8.63;;;;;;;;;;5037386;28;20045;-84
2023/08/17 06:42:17;;;;;;;10.68;8.45;;;;;;;;;;5036770;28;20064;-86
2023/08/17 06:44:43;;;;;;;8.82;7.88;;;;;;;;;;5041149;28;20046;-86
2023/08/17 06:47:10;;;;;;;9.88;8.07;;;;;;;;;;5039886;28;20046;-85
2023/08/17 06:49:38;;;;;;;8.60;7.63;;;;;;;;;;5038866;28;20045;-85
2023/08/17 06:52:05;;;;;;;8.98;7.55;;;;;;;;;;5037834;28;20534;-85
2023/08/17 06:54:32;;;;;;;9.38;7.50;;;;;;;;;;5040717;28;20052;-85
2023/08/17 06:56:58;;;;;;;10.18;8.23;;;;;;;;;;5038881;28;20049;-85
2023/08/17 06:59:25;;;;;;;9.20;8.20;;;;;;;;;;5038252;28;20069;-86
2023/08/17 07:01:51;;;;;;;10.43;8.95;;;;;;;;;;5040311;28;20056;-85
2023/08/17 07:04:19;;;;;;;10.23;7.90;;;;;;;;;;5039929;28;20041;-86
2023/08/17 07:06:47;;;;;;;9.23;7.75;;;;;;;;;;5043540;28;20132;-85
2023/08/17 07:09:14;;;;;;;9.60;8.02;;;;;;;;;;5042599;28;20056;-83
2023/08/17 07:11:40;;;;;;;10.07;7.35;;;;;;;;;;5041999;28;20045;-84
2023/08/17 07:14:07;;;;;;;9.95;7.65;;;;;;;;;;5045420;28;20431;-86
2023/08/17 07:16:35;;;;;;;8.88;7.60;;;;;;;;;;5042358;28;20415;-86
2023/08/17 07:19:02;;;;;;;9.15;7.70;;;;;;;;;;5042270;28;20488;-85
2023/08/17 07:21:29;;;;;;;8.38;7.13;;;;;;;;;;5040792;28;20053;-85
2023/08/17 07:23:56;;;;;;;8.27;7.35;;;;;;;;;;5033867;28;20045;-87
2023/08/17 07:26:23;;;;;;;10.27;7.97;;;;;;;;;;5035422;28;20052;-87
2023/08/17 07:28:50;;;;;;;8.73;7.82;;;;;;;;;;5037960;28;20046;-86
2023/08/17 07:31:17;;;;;;;8.63;7.72;;;;;;;;;;5041029;28;20049;-84
2023/08/17 07:33:44;;;;;;;8.27;7.20;;;;;;;;;;5041070;28;20523;-84
2023/08/17 07:36:11;;;;;;;10.93;8.13;;;;;;;;;;5040446;28;20055;-85
2023/08/17 07:38:37;;;;;;;9.20;7.95;;;;;;;;;;5054113;28;20048;-85
2023/08/17 07:41:05;;;;;;;9.43;8.40;;;;;;;;;;5055899;28;20053;-90
2023/08/17 07:43:32;;;;;;;8.68;7.78;;;;;;;;;;5055873;28;20080;-87
2023/08/17 07:45:59;;;;;;;11.38;7.70;;;;;;;;;;5056308;28;20088;-88
2023/08/17 07:48:25;;;;;;;10.63;8.07;;;;;;;;;;5054381;28;20046;-87
2023/08/17 07:50:53;;;;;;;9.95;7.72;;;;;;;;;;5042685;28;20055;-88
2023/08/17 07:53:20;;;;;;;8.43;7.53;;;;;;;;;;5037482;28;20049;-82
2023/08/17 07:55:47;;;;;;;9.45;7.93;;;;;;;;;;5035590;28;20049;-86
2023/08/17 07:58:15;;;;;;;8.45;7.20;;;;;;;;;;5036848;28;20042;-81
2023/08/17 08:00:41;;;;;;;8.40;7.03;;;;;;;;;;5036121;28;20055;-82
2023/08/17 08:03:08;;;;;;;9.48;8.27;;;;;;;;;;5038618;28;20049;-83
2023/08/17 08:05:34;;;;;;;9.30;7.60;;;;;;;;;;5045596;28;20049;-82
2023/08/17 08:08:01;;;;;;;8.88;7.43;;;;;;;;;;5049646;28;20105;-82
2023/08/17 08:10:28;;;;;;;8.40;7.53;;;;;;;;;;5042079;28;20141;-82
2023/08/17 08:12:55;;;;;;;8.02;7.22;;;;;;;;;;5047770;28;20044;-82
2023/08/17 08:15:23;;;;;;;11.20;7.50;;;;;;;;;;5045220;28;20033;-81
2023/08/17 08:17:49;;;;;;;7.88;7.05;;;;;;;;;;5045395;28;20045;-83
2023/08/17 08:20:16;;;;;;;8.75;7.30;;;;;;;;;;5043135;28;20041;-81
2023/08/17 08:22:43;;;;;;;7.63;6.90;;;;;;;;;;5049377;28;20121;-81
2023/08/17 08:25:09;;;;;;;7.65;6.95;;;;;;;;;;5045986;28;20118;-82
2023/08/17 08:27:36;;;;;;;8.68;7.78;;;;;;;;;;5045463;28;20051;-82
2023/08/17 08:30:02;;;;;;;8.45;7.35;;;;;;;;;;5046589;28;20050;-80
2023/08/17 08:32:30;;;;;;;9.25;7.78;;;;;;;;;;5044535;28;20123;-81
2023/08/17 08:34:57;;;;;;;8.27;7.28;;;;;;;;;;5044118;28;20124;-81
2023/08/17 08:37:23;;;;;;;8.30;7.18;;;;;;;;;;5042131;28;20041;-80
2023/08/17 08:39:51;;;;;;;8.55;7.50;;;;;;;;;;5047239;28;20049;-80
2023/08/17 08:42:17;;;;;;;8.73;7.50;;;;;;;;;;5047618;28;20091;-81
2023/08/17 08:44:44;;;;;;;10.27;7.15;;;;;;;;;;5041363;28;20038;-81
2023/08/17 08:47:11;;;;;;;9.55;6.88;;;;;;;;;;5041184;28;20045;-81
2023/08/17 08:49:41;;;;;;;8.95;6.85;;;;;;;;;;5044695;28;20046;-81
2023/08/17 08:52:09;;;;;;;8.45;7.13;;;;;;;;;;5046205;28;20037;-81
2023/08/17 08:54:37;;;;;;;8.43;7.25;;;;;;;;;;5046106;28;20090;-82
2023/08/17 08:57:09;;;;;;;8.25;7.03;;;;;;;;;;5047580;28;20061;-81
2023/08/17 08:59:43;;;;;;;8.35;7.45;;;;;;;;;;5047921;28;20615;-82
2023/08/17 09:02:12;;;;;;;9.10;6.75;;;;;;;;;;5047770;28;20029;-85
2023/08/17 09:04:40;;;;;;;8.13;7.00;;;;;;;;;;5050599;28;20109;-83
2023/08/17 09:07:08;;;;;;;8.65;7.75;;;;;;;;;;5051318;28;20060;-82
2023/08/17 09:09:36;;;;;;;8.55;7.65;;;;;;;;;;5049684;28;20073;-83
2023/08/17 09:12:04;;;;;;;10.02;7.45;;;;;;;;;;5051822;28;20075;-82
2023/08/17 09:14:30;;;;;;;9.15;7.50;;;;;;;;;;5053701;28;20064;-81
2023/08/17 09:16:58;;;;;;;9.10;7.40;;;;;;;;;;5050507;28;20049;-84
2023/08/17 09:19:28;;;;;;;8.07;7.28;;;;;;;;;;5054312;28;20053;-84
2023/08/17 09:21:56;;;;;;;8.32;7.05;;;;;;;;;;5051980;28;20076;-90
2023/08/17 09:24:35;;;;;;;8.98;7.38;;;;;;;;;;5047744;28;20061;-84
2023/08/17 09:27:05;;;;;;;8.20;7.30;;;;;;;;;;5050777;28;20079;-88
2023/08/17 09:29:40;;;;;;;;;;;;;;;;;;5055003;28;20033;-92
2023/08/17 09:32:10;;;;;;;16.23;12.02;;;;;;;;;;5047106;28;19925;-86
2023/08/17 09:34:36;;;;;;;19.25;13.20;;;;;;;;;;5049352;28;20037;-89
2023/08/17 09:37:05;;;;;;;11.98;10.05;;;;;;;;;;5048631;28;20044;-88
2023/08/17 09:39:40;;;;;;;11.60;9.55;;;;;;;;;;5054696;28;20048;-90
2023/08/17 09:42:25;;;;;;;9.25;7.70;;;;;;;;;;5048925;28;20056;-86
2023/08/17 09:44:52;;;;;;;14.20;10.05;;;;;;;;;;5050766;28;20033;-84
2023/08/17 09:48:08;;;;;;;9.43;8.30;;;;;;;;;;5051663;28;20112;-84
2023/08/17 09:50:44;;;;;;;11.52;8.80;;;;;;;;;;5024466;28;20049;-85
2023/08/17 09:53:34;;;;;;;12.60;8.30;;;;;;;;;;5035773;28;20056;-85
2023/08/17 09:56:02;;;;;;;12.52;8.43;;;;;;;;;;5032555;28;20056;-84
2023/08/17 09:58:28;;;;;;;8.75;7.82;;;;;;;;;;5037106;28;20045;-83
2023/08/17 10:00:56;;;;;;;8.90;7.88;;;;;;;;;;5036541;28;20459;-82
2023/08/17 10:03:26;;;;;;;10.07;8.00;;;;;;;;;;5034606;28;20129;-84
2023/08/17 10:05:59;;;;;;;8.45;7.10;;;;;;;;;;5034164;28;20045;-81
2023/08/17 10:08:31;;;;;;;8.27;7.43;;;;;;;;;;5037708;28;20105;-84
2023/08/17 10:10:59;;;;;;;8.77;7.47;;;;;;;;;;5037935;28;20042;-82
2023/08/17 10:13:32;;;;;;;8.88;7.97;;;;;;;;;;5036335;28;20052;-84
2023/08/17 10:16:04;;;;;;;8.25;7.45;;;;;;;;;;5035992;28;20049;-83
2023/08/17 10:18:36;;;;;;;9.90;7.80;;;;;;;;;;5038864;28;20212;-81
2023/08/17 10:21:08;;;;;;;9.63;7.72;;;;;;;;;;5037684;28;20395;-83
2023/08/17 10:23:36;;;;;;;8.20;7.32;;;;;;;;;;5037559;28;20034;-81
2023/08/17 10:26:03;;;;;;;8.38;7.03;;;;;;;;;;5040605;28;20052;-83
2023/08/17 10:28:31;;;;;;;8.35;7.55;;;;;;;;;;5034511;28;20114;-81
2023/08/17 10:30:58;;;;;;;7.70;6.68;;;;;;;;;;5031768;28;20132;-78
2023/08/17 10:33:26;;;;;;;9.25;7.07;;;;;;;;;;5034761;28;20065;-83
2023/08/17 10:35:53;;;;;;;9.00;7.55;;;;;;;;;;5036606;28;20107;-82
2023/08/17 10:38:20;;;;;;;8.20;7.13;;;;;;;;;;5035625;28;20051;-84
2023/08/17 10:41:11;;;;;;;9.75;7.20;;;;;;;;;;5038974;28;20042;-83
2023/08/17 10:43:59;;;;;;;7.95;7.15;;;;;;;;;;5036783;28;20064;-83
2023/08/17 10:46:39;;;;;;;9.85;7.57;;;;;;;;;;5042592;28;20133;-84
2023/08/17 10:49:14;;;;;;;9.85;7.90;;;;;;;;;;5039155;28;20043;-87
2023/08/17 10:52:01;;;;;;;9.60;8.00;;;;;;;;;;5028309;28;20335;-89
2023/08/17 10:54:43;;;;;;;8.57;7.68;;;;;;;;;;5036538;28;20081;-87
2023/08/17 10:57:34;;;;;;;9.48;8.13;;;;;;;;;;5030327;28;20056;-83
2023/08/17 11:00:27;;;;;;;;;;;;;;;;;;;;;
2023/08/17 11:03:11;;;;;;;7.65;6.95;;;;;;;;;;5032657;28;20060;-87
2023/08/17 11:09:27;;;;;;;63.88;32.65;;;;;;;;;;5034035;28;20045;-87
2023/08/17 11:12:31;;;;;;;35.03;17.65;;;;;;;;;;5034638;28;20049;-87
2023/08/17 11:31:42;;;;;;;10.98;8.20;;;;;;;;;;5001248;22;20092;-55
2023/08/17 11:34:09;;;;;;;8.65;7.75;;;;;;;;;;5028292;28;20053;-54
2023/08/17 11:36:35;;;;;;;8.82;7.65;;;;;;;;;;5028633;28;20054;-56
2023/08/17 11:39:02;;;;;;;10.18;8.30;;;;;;;;;;5026099;28;20045;-56
2023/08/17 11:41:29;;;;;;;11.43;8.93;;;;;;;;;;5031149;28;20124;-56
2023/08/17 11:43:56;;;;;;;9.82;8.35;;;;;;;;;;5030707;28;20065;-58
2023/08/17 11:46:22;;;;;;;8.45;7.60;;;;;;;;;;5031012;28;20053;-55
2023/08/17 11:48:53;;;;;;;8.73;7.82;;;;;;;;;;5029904;28;20060;-54
2023/08/17 11:51:29;;;;;;;8.05;7.25;;;;;;;;;;5028441;28;20043;-57
2023/08/17 11:53:59;;;;;;;8.00;7.22;;;;;;;;;;5027168;28;20449;-57
2023/08/17 11:56:26;;;;;;;10.25;8.85;;;;;;;;;;5030012;28;20045;-57
2023/08/17 11:58:53;;;;;;;8.00;7.20;;;;;;;;;;5027303;28;20051;-57
2023/08/17 12:01:19;;;;;;;9.52;8.32;;;;;;;;;;5026608;28;20050;-56
2023/08/17 12:03:46;;;;;;;9.35;8.30;;;;;;;;;;5030255;28;20123;-56
2023/08/17 12:06:14;;;;;;;9.27;7.90;;;;;;;;;;5029855;28;20545;-55
2023/08/17 12:08:44;;;;;;;9.10;8.15;;;;;;;;;;5029908;28;20067;-54
2023/08/17 12:11:10;;;;;;;8.30;7.47;;;;;;;;;;5028515;28;20070;-57
2023/08/17 12:13:37;;;;;;;8.02;7.22;;;;;;;;;;5029315;28;20120;-57
2023/08/17 12:16:04;;;;;;;8.43;7.55;;;;;;;;;;5029446;28;20053;-55
2023/08/17 12:18:34;;;;;;;7.97;7.18;;;;;;;;;;5027824;28;20085;-56
2023/08/17 12:21:00;;;;;;;9.18;8.27;;;;;;;;;;5029257;28;20160;-55
2023/08/17 12:23:28;;;;;;;8.32;7.13;;;;;;;;;;5029271;28;20482;-55
2023/08/17 12:25:55;;;;;;;7.65;6.95;;;;;;;;;;5029124;28;20503;-57
2023/08/17 12:28:23;;;;;;;8.40;7.45;;;;;;;;;;5028126;28;20088;-56
2023/08/17 12:30:59;;;;;;;7.95;7.15;;;;;;;;;;5026433;28;20056;-57
2023/08/17 12:33:25;;;;;;;8.05;7.25;;;;;;;;;;5029380;28;20041;-57
2023/08/17 12:35:52;;;;;;;8.15;7.35;;;;;;;;;;5027311;28;20049;-55
2023/08/17 12:38:18;;;;;;;7.57;6.88;;;;;;;;;;5026004;28;20534;-55
2023/08/17 12:40:46;;;;;;;9.32;7.22;;;;;;;;;;5029187;28;20483;-56
2023/08/17 12:43:13;;;;;;;8.30;7.40;;;;;;;;;;5025763;28;20045;-54
2023/08/17 12:45:39;;;;;;;7.72;6.93;;;;;;;;;;5029492;28;20060;-55
2023/08/17 12:48:07;;;;;;;7.68;6.97;;;;;;;;;;5029608;28;20045;-55
2023/08/17 12:50:33;;;;;;;8.23;7.40;;;;;;;;;;5029230;28;20053;-55
2023/08/17 12:53:00;;;;;;;7.78;6.60;;;;;;;;;;5029536;28;20056;-56
2023/08/17 12:55:26;;;;;;;7.50;6.65;;;;;;;;;;5029447;28;20049;-57
2023/08/17 12:57:54;;;;;;;8.00;6.30;;;;;;;;;;5029882;28;20156;-57
2023/08/17 13:00:21;;;;;;;7.30;6.60;;;;;;;;;;5029322;28;20045;-56
2023/08/17 13:02:51;;;;;;;7.05;6.35;;;;;;;;;;5029469;28;20128;-54
2023/08/17 13:05:17;;;;;;;6.70;6.10;;;;;;;;;;5029074;28;20454;-56
2023/08/17 13:07:44;;;;;;;6.97;5.80;;;;;;;;;;5029298;28;20052;-56
2023/08/17 13:10:10;;;;;;;7.55;6.47;;;;;;;;;;5028368;28;20054;-57
2023/08/17 13:12:37;;;;;;;7.03;6.32;;;;;;;;;;5026374;28;20041;-57
2023/08/17 13:15:06;;;;;;;7.20;6.00;;;;;;;;;;5029039;28;20115;-57
2023/08/17 13:17:33;;;;;;;6.55;5.88;;;;;;;;;;5028826;28;20137;-57
2023/08/17 13:20:00;;;;;;;6.07;5.47;;;;;;;;;;5028505;28;20105;-57
2023/08/17 13:22:26;;;;;;;5.85;5.20;;;;;;;;;;5028944;28;20046;-56
2023/08/17 13:24:53;;;;;;;5.90;5.35;;;;;;;;;;5029037;28;20414;-54
2023/08/17 13:27:19;;;;;;;6.40;5.80;;;;;;;;;;5028979;28;20052;-54
2023/08/17 13:29:46;;;;;;;5.82;5.22;;;;;;;;;;5028792;28;20049;-57
2023/08/17 13:32:14;;;;;;;5.70;5.20;;;;;;;;;;5026350;28;20042;-55
2023/08/17 13:34:40;;;;;;;6.95;5.60;;;;;;;;;;5028590;28;20046;-57
2023/08/17 13:37:07;;;;;;;5.70;5.20;;;;;;;;;;5028938;28;20046;-57
2023/08/17 13:39:33;;;;;;;5.93;5.13;;;;;;;;;;5029350;28;20463;-56
2023/08/17 13:42:00;;;;;;;6.38;4.80;;;;;;;;;;5028869;28;20042;-57
2023/08/17 13:44:26;;;;;;;6.22;4.95;;;;;;;;;;5029191;28;20467;-55
2023/08/17 13:46:53;;;;;;;6.15;4.82;;;;;;;;;;5028747;28;20056;-54
2023/08/17 13:49:21;;;;;;;5.68;4.60;;;;;;;;;;5029490;28;20057;-57
2023/08/17 13:51:48;;;;;;;7.10;5.20;;;;;;;;;;5026815;28;20048;-56
2023/08/17 13:54:14;;;;;;;5.35;4.85;;;;;;;;;;5032201;28;20509;-57
2023/08/17 13:56:41;;;;;;;5.28;4.35;;;;;;;;;;5032522;28;20052;-57
2023/08/17 13:59:07;;;;;;;6.53;5.10;;;;;;;;;;5033229;28;20038;-56
2023/08/17 14:01:34;;;;;;;5.20;4.70;;;;;;;;;;5032534;28;20049;-57
2023/08/17 14:04:03;;;;;;;5.25;4.75;;;;;;;;;;5026260;28;20075;-55
2023/08/17 14:06:31;;;;;;;5.68;5.18;;;;;;;;;;5028629;28;20052;-57
2023/08/17 14:08:57;;;;;;;7.05;6.35;;;;;;;;;;5028848;28;20041;-57
2023/08/17 14:11:24;;;;;;;7.70;6.80;;;;;;;;;;5030985;28;20057;-57
2023/08/17 14:13:50;;;;;;;7.90;7.20;;;;;;;;;;5029241;28;20052;-57
2023/08/17 14:16:17;;;;;;;7.78;7.07;;;;;;;;;;5028954;28;20483;-56
2023/08/17 14:18:44;;;;;;;8.32;7.57;;;;;;;;;;5032346;28;20053;-57
2023/08/17 14:21:10;;;;;;;8.73;7.70;;;;;;;;;;5029857;28;20477;-56
2023/08/17 14:23:39;;;;;;;7.95;7.25;;;;;;;;;;5027079;28;20064;-57
2023/08/17 14:26:06;;;;;;;8.45;7.68;;;;;;;;;;5029605;28;20065;-56
2023/08/17 14:28:33;;;;;;;8.50;7.70;;;;;;;;;;5028248;28;20049;-55
2023/08/17 14:30:59;;;;;;;9.32;8.43;;;;;;;;;;5031647;28;20060;-57
2023/08/17 14:33:26;;;;;;;8.55;7.75;;;;;;;;;;5031601;28;20055;-57
2023/08/17 14:35:52;;;;;;;9.57;8.00;;;;;;;;;;5029486;28;20450;-54
2023/08/17 14:38:19;;;;;;;8.25;7.45;;;;;;;;;;5027237;28;20147;-56
2023/08/17 14:40:49;;;;;;;9.07;8.27;;;;;;;;;;5030975;28;20053;-57
2023/08/17 14:43:16;;;;;;;8.85;7.95;;;;;;;;;;5031629;28;20041;-57
2023/08/17 14:45:43;;;;;;;8.65;7.75;;;;;;;;;;5031146;28;20045;-56
2023/08/17 14:48:10;;;;;;;9.43;7.63;;;;;;;;;;5030634;28;20047;-57
2023/08/17 14:50:38;;;;;;;8.30;7.60;;;;;;;;;;5029962;28;20367;-57
2023/08/17 14:53:06;;;;;;;9.02;8.13;;;;;;;;;;5031270;28;20092;-57
2023/08/17 14:55:33;;;;;;;8.73;7.93;;;;;;;;;;5030976;28;20045;-53
2023/08/17 14:58:01;;;;;;;8.45;7.75;;;;;;;;;;5031143;28;20049;-56
2023/08/17 15:00:28;;;;;;;8.15;7.45;;;;;;;;;;5028850;28;20142;-56
2023/08/17 15:02:56;;;;;;;8.90;7.93;;;;;;;;;;5031006;28;20045;-57
2023/08/17 15:05:23;;;;;;;9.47;8.63;;;;;;;;;;5030498;28;20042;-57
2023/08/17 15:07:50;;;;;;;8.57;7.88;;;;;;;;;;5031137;28;20042;-56